createdAt,value
2018-03-15T00:01:08.974Z,73.92
2018-03-15T00:03:36.554Z,73.74
2018-03-15T00:06:04.150Z,73.37
2018-03-15T00:08:31.781Z,73.51
2018-03-15T00:10:59.508Z,73.73
2018-03-15T00:13:27.328Z,74.12
2018-03-15T00:15:54.886Z,73.80
2018-03-15T00:18:22.442Z,73.71
2018-03-15T00:20:50.007Z,74.28
2018-03-15T00:23:17.569Z,74.08
2018-03-15T00:25:45.133Z,73.34
2018-03-15T00:28:12.897Z,73.96
2018-03-15T00:30:40.482Z,74.15
2018-03-15T00:33:08.055Z,74.53
2018-03-15T00:35:35.679Z,74.00
2018-03-15T00:38:03.246Z,73.66
2018-03-15T00:40:30.813Z,72.45
2018-03-15T00:42:58.542Z,72.51
2018-03-15T00:45:26.101Z,73.23
2018-03-15T00:47:53.876Z,73.62
2018-03-15T00:50:21.595Z,73.93
2018-03-15T00:52:49.410Z,72.51
2018-03-15T00:55:16.981Z,72.96
2018-03-15T00:57:44.750Z,73.34
2018-03-15T01:00:12.452Z,73.19
2018-03-15T01:02:40.198Z,72.21
2018-03-15T01:05:08.006Z,71.52
2018-03-15T01:07:35.564Z,71.03
2018-03-15T01:10:03.179Z,71.13
2018-03-15T01:12:30.951Z,70.82
2018-03-15T01:14:58.523Z,70.53
2018-03-15T01:17:26.070Z,70.63
2018-03-15T01:19:53.814Z,70.09
2018-03-15T01:22:21.362Z,70.11
2018-03-15T01:24:49.122Z,69.94
2018-03-15T01:27:16.715Z,70.04
2018-03-15T01:29:44.278Z,69.74
2018-03-15T01:32:11.841Z,69.85
2018-03-15T01:34:39.626Z,69.94
2018-03-15T01:37:07.185Z,69.94
2018-03-15T01:39:34.838Z,70.60
2018-03-15T01:42:02.406Z,70.07
2018-03-15T01:44:29.965Z,70.52
2018-03-15T01:46:57.539Z,70.22
2018-03-15T01:49:25.106Z,70.39
2018-03-15T01:51:52.737Z,70.66
2018-03-15T01:54:20.464Z,71.64
2018-03-15T01:56:48.032Z,71.53
2018-03-15T01:59:15.799Z,72.04
2018-03-15T02:01:43.409Z,72.92
2018-03-15T02:04:10.974Z,73.12
2018-03-15T02:06:38.754Z,73.25
2018-03-15T02:09:06.327Z,73.26
2018-03-15T02:11:33.886Z,73.45
2018-03-15T02:14:01.613Z,73.16
2018-03-15T02:16:29.171Z,73.43
2018-03-15T02:18:56.722Z,73.65
2018-03-15T02:21:24.424Z,73.93
2018-03-15T02:23:52.012Z,72.96
2018-03-15T02:26:19.797Z,73.73
2018-03-15T02:28:47.357Z,73.97
2018-03-15T02:31:14.915Z,73.93
2018-03-15T02:33:42.465Z,73.76
2018-03-15T02:36:10.046Z,73.34
2018-03-15T02:38:37.610Z,73.36
2018-03-15T02:41:05.167Z,73.09
2018-03-15T02:43:32.742Z,72.75
2018-03-15T02:46:00.310Z,73.17
2018-03-15T02:48:28.266Z,73.43
2018-03-15T02:50:56.078Z,74.07
2018-03-15T02:53:23.637Z,73.93
2018-03-15T02:55:51.188Z,73.67
2018-03-15T02:58:18.820Z,73.95
2018-03-15T03:00:46.549Z,73.93
2018-03-15T03:03:14.102Z,73.85
2018-03-15T03:05:41.672Z,74.14
2018-03-15T03:08:09.232Z,74.34
2018-03-15T03:10:36.828Z,74.08
2018-03-15T03:13:04.389Z,74.08
2018-03-15T03:15:32.156Z,73.83
2018-03-15T03:17:59.873Z,73.42
2018-03-15T03:20:27.486Z,73.46
2018-03-15T03:22:55.104Z,73.55
2018-03-15T03:25:22.662Z,73.94
2018-03-15T03:27:50.226Z,74.01
2018-03-15T03:30:17.783Z,73.70
2018-03-15T03:32:45.581Z,73.52
2018-03-15T03:35:13.400Z,73.43
2018-03-15T03:37:40.963Z,73.60
2018-03-15T03:40:08.800Z,73.43
2018-03-15T03:42:36.656Z,73.54
2018-03-15T03:45:04.433Z,73.31
2018-03-15T03:47:32.149Z,73.67
2018-03-15T03:49:59.707Z,73.78
2018-03-15T03:52:27.307Z,73.81
2018-03-15T03:54:54.869Z,73.89
2018-03-15T03:57:22.663Z,73.93
2018-03-15T03:59:50.482Z,74.34
2018-03-15T04:02:18.218Z,74.18
2018-03-15T04:04:45.822Z,74.16
2018-03-15T04:07:13.637Z,74.53
2018-03-15T04:09:41.190Z,75.00
2018-03-15T04:12:08.755Z,75.03
2018-03-15T04:14:36.315Z,75.15
2018-03-15T04:17:03.895Z,74.91
2018-03-15T04:19:31.450Z,74.60
2018-03-15T04:21:59.038Z,74.70
2018-03-15T04:24:26.603Z,75.18
2018-03-15T04:26:54.480Z,74.98
2018-03-15T04:29:22.179Z,74.92
2018-03-15T04:31:49.742Z,74.68
2018-03-15T04:34:17.533Z,74.38
2018-03-15T04:36:45.100Z,74.17
2018-03-15T04:39:12.678Z,74.65
2018-03-15T04:41:40.270Z,74.60
2018-03-15T04:44:08.006Z,74.67
2018-03-15T04:46:35.724Z,74.73
2018-03-15T04:49:03.353Z,74.59
2018-03-15T04:51:31.161Z,74.52
2018-03-15T04:53:58.714Z,74.33
2018-03-15T04:56:26.281Z,74.23
2018-03-15T04:58:53.995Z,73.76
2018-03-15T05:01:21.564Z,73.78
2018-03-15T05:03:49.353Z,73.54
2018-03-15T05:06:16.946Z,73.15
2018-03-15T05:08:44.510Z,72.57
2018-03-15T05:11:12.304Z,72.39
2018-03-15T05:13:39.867Z,72.24
2018-03-15T05:16:07.644Z,72.20
2018-03-15T05:18:35.222Z,72.03
2018-03-15T05:21:02.976Z,71.95
2018-03-15T05:23:30.542Z,72.66
2018-03-15T05:25:58.109Z,73.11
2018-03-15T05:28:25.931Z,72.84
2018-03-15T05:30:53.748Z,73.00
2018-03-15T05:33:21.568Z,72.29
2018-03-15T05:35:49.299Z,71.87
2018-03-15T05:38:17.105Z,71.15
2018-03-15T05:40:44.834Z,70.87
2018-03-15T05:43:12.658Z,70.80
2018-03-15T05:45:40.462Z,70.86
2018-03-15T05:48:08.021Z,69.59
2018-03-15T05:50:35.591Z,69.68
2018-03-15T05:53:03.417Z,68.31
2018-03-15T05:55:30.990Z,68.09
2018-03-15T05:57:58.586Z,67.13
2018-03-15T06:00:26.291Z,65.92
2018-03-15T06:02:53.879Z,65.13
2018-03-15T06:05:21.496Z,64.73
2018-03-15T06:07:49.185Z,64.35
2018-03-15T06:10:16.902Z,63.93
2018-03-15T06:12:44.618Z,63.99
2018-03-15T06:15:12.377Z,63.47
2018-03-15T06:17:40.195Z,63.23
2018-03-15T06:20:08.014Z,59.21
2018-03-15T06:22:35.832Z,54.59
2018-03-15T06:25:03.393Z,50.95
2018-03-15T06:27:31.174Z,50.15
2018-03-15T06:29:58.738Z,50.23
2018-03-15T06:32:26.315Z,50.09
2018-03-15T06:34:54.118Z,48.21
2018-03-15T06:37:21.703Z,46.34
2018-03-15T06:39:49.503Z,44.12
2018-03-15T06:42:17.273Z,44.03
2018-03-15T06:44:44.850Z,45.16
2018-03-15T06:47:12.414Z,47.06
2018-03-15T06:49:40.024Z,50.65
2018-03-15T06:52:07.900Z,50.38
2018-03-15T06:54:35.466Z,50.89
2018-03-15T06:57:03.026Z,49.15
2018-03-15T06:59:30.606Z,49.62
2018-03-15T07:01:58.421Z,49.34
2018-03-15T07:04:25.985Z,50.04
2018-03-15T07:06:54.408Z,52.01
2018-03-15T07:09:22.092Z,52.23
2018-03-15T07:11:49.897Z,51.27
2018-03-15T07:14:17.605Z,46.92
2018-03-15T07:16:45.434Z,43.30
2018-03-15T07:19:13.083Z,43.51
2018-03-15T07:21:40.869Z,43.80
2018-03-15T07:24:08.450Z,42.61
2018-03-15T07:26:36.206Z,43.53
2018-03-15T07:29:03.797Z,41.69
2018-03-15T07:31:31.542Z,39.74
2018-03-15T07:33:59.264Z,39.63
2018-03-15T07:36:26.996Z,39.14
2018-03-15T07:38:54.710Z,39.72
2018-03-15T07:41:22.327Z,38.55
2018-03-15T07:43:50.134Z,39.75
2018-03-15T07:46:17.952Z,41.24
2018-03-15T07:48:45.551Z,41.68
2018-03-15T07:51:13.288Z,41.92
2018-03-15T07:53:40.858Z,40.10
2018-03-15T07:56:08.516Z,38.60
2018-03-15T07:58:36.343Z,38.02
2018-03-15T08:01:03.902Z,40.38
2018-03-15T08:03:31.679Z,41.40
2018-03-15T08:05:59.497Z,41.19
2018-03-15T08:08:27.107Z,38.75
2018-03-15T08:10:54.694Z,36.53
2018-03-15T08:13:22.344Z,36.02
2018-03-15T08:15:49.962Z,38.10
2018-03-15T08:18:17.523Z,37.90
2018-03-15T08:20:45.099Z,35.77
2018-03-15T08:23:12.856Z,36.19
2018-03-15T08:25:40.641Z,37.05
2018-03-15T08:28:08.210Z,36.35
2018-03-15T08:30:35.984Z,35.64
2018-03-15T08:33:03.800Z,35.37
2018-03-15T08:35:31.368Z,36.33
2018-03-15T08:37:59.001Z,34.82
2018-03-15T08:40:26.609Z,37.34
2018-03-15T08:42:54.178Z,38.26
2018-03-15T08:45:21.986Z,39.57
2018-03-15T08:47:49.550Z,40.38
2018-03-15T08:50:17.322Z,40.73
2018-03-15T08:52:44.892Z,41.53
2018-03-15T08:55:12.470Z,41.92
2018-03-15T08:57:40.095Z,39.69
2018-03-15T09:00:07.754Z,38.72
2018-03-15T09:02:35.314Z,38.24
2018-03-15T09:05:03.130Z,38.07
2018-03-15T09:07:30.686Z,36.68
2018-03-15T09:09:58.248Z,37.04
2018-03-15T09:12:25.847Z,37.56
2018-03-15T09:14:53.419Z,36.49
2018-03-15T09:17:21.221Z,35.58
2018-03-15T09:19:48.769Z,36.84
2018-03-15T09:22:16.556Z,36.79
2018-03-15T09:24:44.105Z,36.25
2018-03-15T09:27:11.674Z,37.18
2018-03-15T09:29:39.238Z,38.19
2018-03-15T09:32:06.850Z,38.50
2018-03-15T09:34:34.475Z,37.96
2018-03-15T09:37:02.159Z,38.46
2018-03-15T09:39:29.755Z,38.62
2018-03-15T09:41:57.380Z,37.66
2018-03-15T09:44:25.225Z,37.50
2018-03-15T09:46:52.817Z,37.92
2018-03-15T09:49:20.410Z,37.56
2018-03-15T09:51:48.002Z,36.84
2018-03-15T09:54:15.592Z,38.43
2018-03-15T09:56:43.409Z,39.06
2018-03-15T09:59:11.167Z,37.08
2018-03-15T10:01:38.859Z,36.61
2018-03-15T10:04:06.472Z,35.07
2018-03-15T10:06:34.385Z,33.32
2018-03-15T10:09:02.086Z,33.82
2018-03-15T10:11:29.817Z,33.03
2018-03-15T10:13:57.547Z,34.57
2018-03-15T10:16:25.191Z,33.68
2018-03-15T10:18:52.758Z,35.30
2018-03-15T10:21:20.345Z,36.07
2018-03-15T10:23:48.108Z,37.73
2018-03-15T10:26:15.702Z,36.38
2018-03-15T10:28:43.545Z,37.09
2018-03-15T10:31:11.253Z,36.58
2018-03-15T10:33:38.873Z,34.95
2018-03-15T10:36:06.701Z,34.11
2018-03-15T10:38:34.618Z,32.13
2018-03-15T10:41:02.224Z,32.46
2018-03-15T10:43:29.810Z,32.26
2018-03-15T10:45:57.464Z,34.79
2018-03-15T10:48:25.050Z,33.93
2018-03-15T10:50:52.807Z,33.95
2018-03-15T10:53:20.627Z,34.72
2018-03-15T10:55:48.435Z,37.21
2018-03-15T10:58:16.021Z,36.08
2018-03-15T11:00:49.150Z,34.76
2018-03-15T11:03:17.477Z,32.55
2018-03-15T11:05:46.690Z,31.10
2018-03-15T11:08:20.082Z,32.44
2018-03-15T11:10:47.732Z,32.72
2018-03-15T11:13:15.398Z,32.29
2018-03-15T11:15:43.014Z,32.90
2018-03-15T11:18:10.600Z,33.33
2018-03-15T11:20:38.177Z,31.90
2018-03-15T11:23:05.766Z,31.38
2018-03-15T11:25:33.607Z,33.20
2018-03-15T11:28:01.230Z,35.64
2018-03-15T11:30:28.836Z,35.67
2018-03-15T11:32:56.434Z,34.57
2018-03-15T11:35:24.066Z,34.51
2018-03-15T11:37:51.676Z,35.16
2018-03-15T11:40:19.266Z,33.79
2018-03-15T11:42:46.914Z,34.64
2018-03-15T11:45:14.754Z,32.13
2018-03-15T11:47:42.329Z,31.82
2018-03-15T11:50:09.947Z,31.37
2018-03-15T11:52:37.589Z,31.58
2018-03-15T11:55:05.202Z,31.11
2018-03-15T11:57:32.790Z,31.95
2018-03-15T12:00:00.663Z,32.98
2018-03-15T12:02:28.358Z,34.09
2018-03-15T12:04:55.937Z,34.98
2018-03-15T12:07:23.539Z,36.78
2018-03-15T12:09:51.636Z,37.58
2018-03-15T12:12:19.589Z,36.68
2018-03-15T12:14:47.161Z,33.38
2018-03-15T12:17:15.003Z,33.48
2018-03-15T12:19:42.811Z,33.13
2018-03-15T12:22:10.595Z,31.66
2018-03-15T12:24:38.462Z,31.18
2018-03-15T12:27:06.210Z,30.75
2018-03-15T12:29:33.896Z,31.97
2018-03-15T12:32:01.692Z,29.58
2018-03-15T12:34:29.522Z,29.64
2018-03-15T12:36:57.336Z,27.55
2018-03-15T12:39:25.233Z,30.32
2018-03-15T12:41:52.860Z,32.24
2018-03-15T12:44:20.417Z,31.60
2018-03-15T12:46:47.982Z,33.28
2018-03-15T12:49:15.731Z,33.80
2018-03-15T12:51:43.549Z,34.36
2018-03-15T12:54:11.115Z,36.29
2018-03-15T12:56:38.688Z,38.17
2018-03-15T12:59:06.254Z,38.62
2018-03-15T13:01:33.847Z,39.58
2018-03-15T13:04:01.641Z,40.04
2018-03-15T13:06:29.204Z,40.35
2018-03-15T13:08:56.864Z,41.53
2018-03-15T13:11:24.440Z,40.91
2018-03-15T13:13:52.209Z,40.70
2018-03-15T13:16:20.031Z,37.86
2018-03-15T13:18:47.586Z,34.07
2018-03-15T13:21:15.364Z,32.51
2018-03-15T13:23:42.939Z,30.78
2018-03-15T13:26:10.552Z,30.53
2018-03-15T13:28:38.103Z,29.52
2018-03-15T13:31:05.836Z,29.33
2018-03-15T13:33:33.653Z,29.44
2018-03-15T13:36:01.265Z,28.03
2018-03-15T13:38:28.990Z,26.93
2018-03-15T13:40:56.599Z,28.21
2018-03-15T13:43:24.207Z,28.95
2018-03-15T13:45:51.917Z,29.78
2018-03-15T13:48:19.473Z,31.35
2018-03-15T13:50:47.285Z,31.59
2018-03-15T13:53:14.890Z,32.97
2018-03-15T13:55:42.470Z,33.31
2018-03-15T13:58:10.052Z,34.25
2018-03-15T14:00:37.641Z,34.02
2018-03-15T14:03:05.330Z,34.07
2018-03-15T14:05:32.888Z,34.95
2018-03-15T14:08:00.708Z,33.89
2018-03-15T14:10:28.259Z,31.89
2018-03-15T14:12:56.043Z,31.66
2018-03-15T14:15:23.767Z,31.27
2018-03-15T14:17:51.327Z,32.30
2018-03-15T14:20:19.097Z,32.78
2018-03-15T14:22:46.694Z,33.97
2018-03-15T14:25:14.318Z,34.73
2018-03-15T14:27:41.879Z,34.69
2018-03-15T14:30:09.453Z,34.91
2018-03-15T14:32:37.010Z,34.01
2018-03-15T14:35:04.569Z,32.09
2018-03-15T14:37:32.128Z,31.48
2018-03-15T14:39:59.677Z,31.52
2018-03-15T14:42:27.334Z,33.25
2018-03-15T14:44:54.886Z,34.00
2018-03-15T14:47:22.693Z,35.30
2018-03-15T14:49:50.254Z,37.44
2018-03-15T14:52:18.029Z,38.29
2018-03-15T14:54:45.712Z,39.04
2018-03-15T14:57:13.431Z,39.90
2018-03-15T14:59:41.019Z,40.25
2018-03-15T15:02:08.601Z,39.81
2018-03-15T15:04:36.170Z,38.70
2018-03-15T15:07:03.896Z,40.20
2018-03-15T15:09:31.471Z,40.26
2018-03-15T15:11:59.046Z,40.51
2018-03-15T15:14:26.633Z,40.34
2018-03-15T15:16:54.205Z,38.12
2018-03-15T15:19:22.027Z,36.74
2018-03-15T15:21:49.593Z,36.16
2018-03-15T15:24:17.154Z,35.83
2018-03-15T15:26:44.735Z,35.54
2018-03-15T15:29:12.294Z,34.51
2018-03-15T15:31:40.018Z,34.56
2018-03-15T15:34:07.628Z,36.48
2018-03-15T15:36:35.243Z,37.89
2018-03-15T15:39:03.071Z,39.15
2018-03-15T15:41:30.680Z,39.86
2018-03-15T15:43:58.278Z,40.91
2018-03-15T15:46:25.886Z,41.54
2018-03-15T15:48:53.462Z,42.75
2018-03-15T15:51:21.028Z,43.53
2018-03-15T15:53:48.669Z,44.63
2018-03-15T15:56:16.394Z,45.99
2018-03-15T15:58:43.975Z,48.02
2018-03-15T16:01:11.556Z,49.44
2018-03-15T16:03:39.140Z,50.05
2018-03-15T16:06:07.020Z,50.55
2018-03-15T16:08:34.606Z,50.98
2018-03-15T16:11:02.435Z,51.43
2018-03-15T16:13:30.223Z,51.92
2018-03-15T16:15:58.042Z,52.30
2018-03-15T16:18:25.862Z,52.62
2018-03-15T16:20:53.440Z,53.18
2018-03-15T16:23:21.165Z,53.48
2018-03-15T16:25:48.929Z,53.52
2018-03-15T16:28:16.736Z,53.95
2018-03-15T16:30:44.300Z,54.62
2018-03-15T16:33:11.986Z,54.17
2018-03-15T16:35:39.572Z,53.83
2018-03-15T16:38:07.142Z,53.53
2018-03-15T16:40:34.905Z,53.87
2018-03-15T16:43:02.528Z,53.99
2018-03-15T16:45:30.106Z,55.24
2018-03-15T16:47:57.683Z,55.11
2018-03-15T16:50:25.496Z,55.61
2018-03-15T16:52:53.231Z,55.57
2018-03-15T16:55:20.802Z,55.98
2018-03-15T16:57:48.522Z,56.96
2018-03-15T17:00:16.111Z,57.71
2018-03-15T17:02:43.690Z,57.71
2018-03-15T17:05:11.388Z,57.97
2018-03-15T17:07:38.982Z,58.38
2018-03-15T17:10:06.624Z,58.19
2018-03-15T17:12:34.190Z,58.54
2018-03-15T17:15:01.802Z,59.34
2018-03-15T17:17:29.374Z,60.12
2018-03-15T17:19:56.963Z,59.17
2018-03-15T17:22:24.713Z,59.28
2018-03-15T17:24:52.501Z,60.31
2018-03-15T17:27:20.150Z,59.99
2018-03-15T17:29:47.865Z,60.13
2018-03-15T17:32:15.493Z,60.34
2018-03-15T17:34:43.211Z,59.98
2018-03-15T17:37:10.787Z,59.74
2018-03-15T17:39:38.353Z,58.34
2018-03-15T17:42:06.182Z,58.70
2018-03-15T17:44:33.782Z,59.77
2018-03-15T17:47:01.611Z,59.68
2018-03-15T17:49:29.220Z,60.11
2018-03-15T17:51:56.818Z,61.06
2018-03-15T17:54:24.528Z,61.11
2018-03-15T17:56:52.245Z,61.27
2018-03-15T17:59:19.814Z,61.28
2018-03-15T18:01:47.510Z,60.52
2018-03-15T18:04:15.337Z,60.53
2018-03-15T18:06:42.927Z,60.59
2018-03-15T18:09:10.506Z,60.71
2018-03-15T18:11:38.085Z,60.77
2018-03-15T18:14:05.909Z,61.34
2018-03-15T18:16:33.735Z,61.18
2018-03-15T18:19:01.546Z,61.66
2018-03-15T18:21:29.122Z,61.87
2018-03-15T18:23:56.722Z,62.11
2018-03-15T18:26:24.294Z,62.74
2018-03-15T18:28:51.898Z,62.92
2018-03-15T18:31:19.602Z,62.85
2018-03-15T18:33:47.185Z,63.83
2018-03-15T18:36:14.977Z,63.98
2018-03-15T18:38:42.791Z,64.30
2018-03-15T18:41:10.404Z,64.26
2018-03-15T18:43:37.981Z,64.36
2018-03-15T18:46:05.727Z,64.47
2018-03-15T18:48:33.304Z,65.09
2018-03-15T18:51:01.159Z,65.87
2018-03-15T18:53:28.734Z,65.27
2018-03-15T18:55:56.521Z,65.18
2018-03-15T18:58:24.336Z,66.54
2018-03-15T19:00:51.910Z,67.11
2018-03-15T19:03:19.486Z,66.53
2018-03-15T19:05:47.281Z,66.43
2018-03-15T19:08:15.111Z,67.17
2018-03-15T19:10:42.703Z,67.30
2018-03-15T19:13:10.452Z,66.55
2018-03-15T19:15:38.264Z,66.80
2018-03-15T19:18:05.840Z,66.20
2018-03-15T19:20:33.585Z,65.98
2018-03-15T19:23:01.300Z,65.75
2018-03-15T19:25:28.922Z,65.97
2018-03-15T19:27:56.632Z,65.98
2018-03-15T19:30:24.199Z,66.38
2018-03-15T19:32:51.885Z,66.70
2018-03-15T19:35:19.455Z,66.41
2018-03-15T19:37:47.090Z,66.70
2018-03-15T19:40:14.845Z,67.20
2018-03-15T19:42:42.486Z,67.97
2018-03-15T19:45:10.337Z,67.22
2018-03-15T19:47:37.898Z,67.89
2018-03-15T19:50:05.639Z,68.51
2018-03-15T19:52:33.321Z,68.39
2018-03-15T19:55:01.145Z,67.78
2018-03-15T19:57:28.727Z,68.22
2018-03-15T19:59:56.491Z,68.96
2018-03-15T20:02:24.140Z,69.99
2018-03-15T20:04:51.927Z,70.18
2018-03-15T20:07:19.581Z,69.52
2018-03-15T20:09:47.154Z,67.97
2018-03-15T20:12:14.814Z,67.25
2018-03-15T20:14:42.384Z,66.49
2018-03-15T20:17:09.982Z,67.35
2018-03-15T20:19:37.554Z,65.80
2018-03-15T20:22:05.127Z,64.73
2018-03-15T20:24:32.938Z,65.79
2018-03-15T20:27:00.689Z,65.72
2018-03-15T20:29:28.507Z,66.51
2018-03-15T20:31:56.091Z,66.33
2018-03-15T20:34:23.835Z,66.33
2018-03-15T20:36:51.407Z,66.16
2018-03-15T20:39:24.406Z,65.90
2018-03-15T20:41:52.221Z,66.61
2018-03-15T20:44:19.785Z,66.54
2018-03-15T20:46:53.175Z,66.26
2018-03-15T20:49:20.764Z,67.48
2018-03-15T20:51:48.365Z,67.36
2018-03-15T20:54:15.938Z,67.57
2018-03-15T20:56:43.578Z,67.35
2018-03-15T20:59:11.342Z,67.50
2018-03-15T21:01:38.914Z,67.78
2018-03-15T21:04:06.541Z,67.88
2018-03-15T21:06:34.246Z,68.04
2018-03-15T21:09:02.040Z,68.88
2018-03-15T21:11:29.618Z,69.18
2018-03-15T21:13:57.246Z,69.51
2018-03-15T21:16:24.818Z,70.00
2018-03-15T21:18:52.381Z,69.52
2018-03-15T21:21:19.966Z,69.75
2018-03-15T21:23:47.526Z,69.53
2018-03-15T21:26:15.118Z,69.84
2018-03-15T21:28:42.794Z,70.04
2018-03-15T21:31:10.423Z,69.61
2018-03-15T21:33:37.982Z,69.64
2018-03-15T21:36:05.714Z,69.79
2018-03-15T21:38:33.294Z,70.74
2018-03-15T21:41:01.068Z,70.99
2018-03-15T21:43:28.659Z,71.30
2018-03-15T21:45:56.380Z,72.03
2018-03-15T21:48:24.108Z,72.43
2018-03-15T21:50:51.670Z,72.92
2018-03-15T21:53:19.247Z,72.67
2018-03-15T21:55:46.834Z,72.51
2018-03-15T21:58:14.394Z,73.12
2018-03-15T22:00:41.997Z,73.33
2018-03-15T22:03:09.561Z,73.19
2018-03-15T22:05:37.125Z,73.14
2018-03-15T22:08:04.694Z,73.12
2018-03-15T22:10:32.253Z,72.59
2018-03-15T22:13:00.101Z,72.54
2018-03-15T22:15:27.669Z,72.65
2018-03-15T22:17:55.439Z,73.10
2018-03-15T22:20:23.022Z,73.30
2018-03-15T22:22:50.773Z,73.22
2018-03-15T22:25:18.342Z,73.41
2018-03-15T22:27:45.905Z,73.62
2018-03-15T22:30:13.626Z,73.96
2018-03-15T22:32:41.446Z,74.04
2018-03-15T22:35:09.100Z,73.73
2018-03-15T22:37:36.682Z,73.75
2018-03-15T22:40:04.288Z,73.94
2018-03-15T22:42:31.982Z,74.34
2018-03-15T22:44:59.835Z,74.83
2018-03-15T22:47:27.407Z,74.33
2018-03-15T22:49:54.970Z,74.01
2018-03-15T22:52:22.559Z,73.69
2018-03-15T22:54:50.292Z,73.73
2018-03-15T22:57:17.845Z,73.77
2018-03-15T22:59:45.414Z,73.68
2018-03-15T23:02:12.981Z,73.38
2018-03-15T23:04:40.664Z,73.18
2018-03-15T23:07:08.222Z,72.95
2018-03-15T23:09:35.782Z,72.72
2018-03-15T23:12:03.354Z,72.63
2018-03-15T23:14:30.921Z,72.80
2018-03-15T23:16:58.718Z,73.49
2018-03-15T23:19:26.259Z,73.48
2018-03-15T23:21:53.850Z,73.74
2018-03-15T23:24:21.623Z,74.52
2018-03-15T23:26:49.339Z,74.50
2018-03-15T23:29:17.159Z,74.34
2018-03-15T23:31:44.713Z,74.32
2018-03-15T23:34:12.292Z,73.72
2018-03-15T23:36:39.872Z,73.48
2018-03-15T23:39:07.439Z,73.32
2018-03-15T23:41:35.293Z,73.69
2018-03-15T23:44:02.861Z,73.72
2018-03-15T23:46:30.433Z,73.85
2018-03-15T23:48:57.994Z,74.44
2018-03-15T23:51:25.820Z,74.50
2018-03-15T23:53:53.387Z,74.44
2018-03-15T23:56:21.125Z,74.83
2018-03-15T23:58:48.844Z,74.59
